sensor_id;sensor_type;location;lat;lon;timestamp;temperature;humidity
15113;DHT22;7657;50.140;7.076;2023-07-13T00:01:28;19.30;99.90
15113;DHT22;7657;50.140;7.076;2023-07-13T00:03:55;19.30;99.90
15113;DHT22;7657;50.140;7.076;2023-07-13T00:06:24;19.30;99.90
15113;DHT22;7657;50.140;7.076;2023-07-13T00:08:51;19.30;99.90
15113;DHT22;7657;50.140;7.076;2023-07-13T00:11:18;19.20;99.90
15113;DHT22;7657;50.140;7.076;2023-07-13T00:13:45;19.00;99.90
15113;DHT22;7657;50.140;7.076;2023-07-13T00:16:12;19.10;99.90
15113;DHT22;7657;50.140;7.076;2023-07-13T00:18:40;19.10;99.90
15113;DHT22;7657;50.140;7.076;2023-07-13T00:21:07;19.10;99.90
15113;DHT22;7657;50.140;7.076;2023-07-13T00:23:37;19.10;99.90
15113;DHT22;7657;50.140;7.076;2023-07-13T00:26:07;19.00;99.90
15113;DHT22;7657;50.140;7.076;2023-07-13T00:28:34;19.00;99.90
15113;DHT22;7657;50.140;7.076;2023-07-13T00:31:01;18.90;99.90
15113;DHT22;7657;50.140;7.076;2023-07-13T00:33:29;18.80;99.90
15113;DHT22;7657;50.140;7.076;2023-07-13T00:35:56;18.70;99.90
15113;DHT22;7657;50.140;7.076;2023-07-13T00:38:23;18.60;99.90
15113;DHT22;7657;50.140;7.076;2023-07-13T00:40:52;18.40;99.90
15113;DHT22;7657;50.140;7.076;2023-07-13T00:43:21;18.40;99.90
15113;DHT22;7657;50.140;7.076;2023-07-13T00:46:11;18.40;99.90
15113;DHT22;7657;50.140;7.076;2023-07-13T00:48:39;18.40;99.90
15113;DHT22;7657;50.140;7.076;2023-07-13T00:51:06;18.40;99.90
15113;DHT22;7657;50.140;7.076;2023-07-13T00:53:34;18.30;99.90
15113;DHT22;7657;50.140;7.076;2023-07-13T00:56:03;18.00;99.90
15113;DHT22;7657;50.140;7.076;2023-07-13T00:58:30;17.90;99.90
15113;DHT22;7657;50.140;7.076;2023-07-13T01:00:57;17.80;99.90
15113;DHT22;7657;50.140;7.076;2023-07-13T01:03:24;17.80;99.90
15113;DHT22;7657;50.140;7.076;2023-07-13T01:05:51;17.80;99.90
15113;DHT22;7657;50.140;7.076;2023-07-13T01:08:20;17.90;99.90
15113;DHT22;7657;50.140;7.076;2023-07-13T01:10:54;17.80;99.90
15113;DHT22;7657;50.140;7.076;2023-07-13T01:13:23;17.90;99.90
15113;DHT22;7657;50.140;7.076;2023-07-13T01:15:51;17.80;99.90
15113;DHT22;7657;50.140;7.076;2023-07-13T01:18:21;17.70;99.90
15113;DHT22;7657;50.140;7.076;2023-07-13T01:20:55;17.60;99.90
15113;DHT22;7657;50.140;7.076;2023-07-13T01:23:22;17.70;99.90
15113;DHT22;7657;50.140;7.076;2023-07-13T01:25:50;17.60;99.90
15113;DHT22;7657;50.140;7.076;2023-07-13T01:28:17;17.60;99.90
15113;DHT22;7657;50.140;7.076;2023-07-13T01:30:46;17.60;99.90
15113;DHT22;7657;50.140;7.076;2023-07-13T01:33:15;17.50;99.90
15113;DHT22;7657;50.140;7.076;2023-07-13T01:35:42;17.60;99.90
15113;DHT22;7657;50.140;7.076;2023-07-13T01:38:12;17.50;99.90
15113;DHT22;7657;50.140;7.076;2023-07-13T01:40:40;17.60;99.90
15113;DHT22;7657;50.140;7.076;2023-07-13T01:43:07;17.40;99.90
15113;DHT22;7657;50.140;7.076;2023-07-13T01:45:34;17.40;99.90
15113;DHT22;7657;50.140;7.076;2023-07-13T01:48:00;17.40;99.90
15113;DHT22;7657;50.140;7.076;2023-07-13T01:50:28;17.40;99.90
15113;DHT22;7657;50.140;7.076;2023-07-13T01:52:55;17.30;99.90
15113;DHT22;7657;50.140;7.076;2023-07-13T01:55:23;17.20;99.90
15113;DHT22;7657;50.140;7.076;2023-07-13T01:57:50;17.10;99.90
15113;DHT22;7657;50.140;7.076;2023-07-13T02:00:17;17.10;99.90
15113;DHT22;7657;50.140;7.076;2023-07-13T02:02:44;17.00;99.90
15113;DHT22;7657;50.140;7.076;2023-07-13T02:05:11;17.00;99.90
15113;DHT22;7657;50.140;7.076;2023-07-13T02:07:38;17.00;99.90
15113;DHT22;7657;50.140;7.076;2023-07-13T02:10:06;17.00;99.90
15113;DHT22;7657;50.140;7.076;2023-07-13T02:12:36;17.00;99.90
15113;DHT22;7657;50.140;7.076;2023-07-13T02:15:04;17.10;99.90
15113;DHT22;7657;50.140;7.076;2023-07-13T02:17:31;17.00;99.90
15113;DHT22;7657;50.140;7.076;2023-07-13T02:19:58;16.90;99.90
15113;DHT22;7657;50.140;7.076;2023-07-13T02:22:25;17.00;99.90
15113;DHT22;7657;50.140;7.076;2023-07-13T02:24:52;17.00;99.90
15113;DHT22;7657;50.140;7.076;2023-07-13T02:27:19;16.80;99.90
15113;DHT22;7657;50.140;7.076;2023-07-13T02:29:47;16.90;99.90
15113;DHT22;7657;50.140;7.076;2023-07-13T02:32:16;16.90;99.90
15113;DHT22;7657;50.140;7.076;2023-07-13T02:34:44;16.90;99.90
15113;DHT22;7657;50.140;7.076;2023-07-13T02:37:11;16.90;99.90
15113;DHT22;7657;50.140;7.076;2023-07-13T02:39:38;16.90;99.90
15113;DHT22;7657;50.140;7.076;2023-07-13T02:42:05;16.80;99.90
15113;DHT22;7657;50.140;7.076;2023-07-13T02:44:32;16.80;99.90
15113;DHT22;7657;50.140;7.076;2023-07-13T02:47:01;16.80;99.90
15113;DHT22;7657;50.140;7.076;2023-07-13T02:49:27;16.70;99.90
15113;DHT22;7657;50.140;7.076;2023-07-13T02:51:54;16.60;99.90
15113;DHT22;7657;50.140;7.076;2023-07-13T02:54:21;16.60;99.90
15113;DHT22;7657;50.140;7.076;2023-07-13T02:56:48;16.60;99.90
15113;DHT22;7657;50.140;7.076;2023-07-13T02:59:15;16.60;99.90
15113;DHT22;7657;50.140;7.076;2023-07-13T03:01:42;16.50;99.90
15113;DHT22;7657;50.140;7.076;2023-07-13T03:04:11;16.50;99.90
15113;DHT22;7657;50.140;7.076;2023-07-13T03:06:38;16.60;99.90
15113;DHT22;7657;50.140;7.076;2023-07-13T03:09:05;16.70;99.90
15113;DHT22;7657;50.140;7.076;2023-07-13T03:11:32;16.80;99.90
15113;DHT22;7657;50.140;7.076;2023-07-13T03:13:59;16.80;99.90
15113;DHT22;7657;50.140;7.076;2023-07-13T03:16:26;16.70;99.90
15113;DHT22;7657;50.140;7.076;2023-07-13T03:18:53;16.70;99.90
15113;DHT22;7657;50.140;7.076;2023-07-13T03:21:21;16.70;99.90
15113;DHT22;7657;50.140;7.076;2023-07-13T03:23:48;16.60;99.90
15113;DHT22;7657;50.140;7.076;2023-07-13T03:26:18;16.60;99.90
15113;DHT22;7657;50.140;7.076;2023-07-13T03:28:45;16.50;99.90
15113;DHT22;7657;50.140;7.076;2023-07-13T03:31:14;16.30;99.90
15113;DHT22;7657;50.140;7.076;2023-07-13T03:33:42;16.20;99.90
15113;DHT22;7657;50.140;7.076;2023-07-13T03:36:12;16.10;99.90
15113;DHT22;7657;50.140;7.076;2023-07-13T03:38:40;16.00;99.90
15113;DHT22;7657;50.140;7.076;2023-07-13T03:41:07;16.20;99.90
15113;DHT22;7657;50.140;7.076;2023-07-13T03:43:34;16.30;99.90
15113;DHT22;7657;50.140;7.076;2023-07-13T03:46:01;16.20;99.90
15113;DHT22;7657;50.140;7.076;2023-07-13T03:48:28;16.20;99.90
15113;DHT22;7657;50.140;7.076;2023-07-13T03:50:54;16.20;99.90
15113;DHT22;7657;50.140;7.076;2023-07-13T03:53:21;16.10;99.90
15113;DHT22;7657;50.140;7.076;2023-07-13T03:55:50;16.20;99.90
15113;DHT22;7657;50.140;7.076;2023-07-13T03:58:27;16.10;99.90
15113;DHT22;7657;50.140;7.076;2023-07-13T04:00:54;16.00;99.90
15113;DHT22;7657;50.140;7.076;2023-07-13T04:03:21;16.00;99.90
15113;DHT22;7657;50.140;7.076;2023-07-13T04:05:48;16.00;99.90
15113;DHT22;7657;50.140;7.076;2023-07-13T04:08:16;16.00;99.90
15113;DHT22;7657;50.140;7.076;2023-07-13T04:10:43;16.00;99.90
15113;DHT22;7657;50.140;7.076;2023-07-13T04:13:11;16.00;99.90
15113;DHT22;7657;50.140;7.076;2023-07-13T04:15:38;15.90;99.90
15113;DHT22;7657;50.140;7.076;2023-07-13T04:18:05;15.80;99.90
15113;DHT22;7657;50.140;7.076;2023-07-13T04:20:32;15.80;99.90
15113;DHT22;7657;50.140;7.076;2023-07-13T04:22:59;15.80;99.90
15113;DHT22;7657;50.140;7.076;2023-07-13T04:25:26;15.80;99.90
15113;DHT22;7657;50.140;7.076;2023-07-13T04:27:54;15.80;99.90
15113;DHT22;7657;50.140;7.076;2023-07-13T04:30:22;15.80;99.90
15113;DHT22;7657;50.140;7.076;2023-07-13T04:32:51;15.90;99.90
15113;DHT22;7657;50.140;7.076;2023-07-13T04:35:19;16.00;99.90
15113;DHT22;7657;50.140;7.076;2023-07-13T04:37:47;16.00;99.90
15113;DHT22;7657;50.140;7.076;2023-07-13T04:40:15;15.80;99.90
15113;DHT22;7657;50.140;7.076;2023-07-13T04:42:43;15.80;99.90
15113;DHT22;7657;50.140;7.076;2023-07-13T04:45:10;15.80;99.90
15113;DHT22;7657;50.140;7.076;2023-07-13T04:47:38;16.00;99.90
15113;DHT22;7657;50.140;7.076;2023-07-13T04:50:06;16.20;99.90
15113;DHT22;7657;50.140;7.076;2023-07-13T04:52:33;16.30;99.90
15113;DHT22;7657;50.140;7.076;2023-07-13T04:55:00;16.40;99.90
15113;DHT22;7657;50.140;7.076;2023-07-13T04:57:28;16.50;99.90
15113;DHT22;7657;50.140;7.076;2023-07-13T04:59:55;16.60;99.90
15113;DHT22;7657;50.140;7.076;2023-07-13T05:02:22;16.70;99.90
15113;DHT22;7657;50.140;7.076;2023-07-13T05:04:50;16.70;99.90
15113;DHT22;7657;50.140;7.076;2023-07-13T05:07:17;16.80;99.90
15113;DHT22;7657;50.140;7.076;2023-07-13T05:09:43;16.70;99.90
15113;DHT22;7657;50.140;7.076;2023-07-13T05:12:10;16.70;99.90
15113;DHT22;7657;50.140;7.076;2023-07-13T05:14:37;16.60;99.90
15113;DHT22;7657;50.140;7.076;2023-07-13T05:17:04;16.60;99.90
15113;DHT22;7657;50.140;7.076;2023-07-13T05:19:31;16.60;99.90
15113;DHT22;7657;50.140;7.076;2023-07-13T05:21:59;16.70;99.90
15113;DHT22;7657;50.140;7.076;2023-07-13T05:24:28;16.80;99.90
15113;DHT22;7657;50.140;7.076;2023-07-13T05:26:55;16.80;99.90
15113;DHT22;7657;50.140;7.076;2023-07-13T05:29:23;16.90;99.90
15113;DHT22;7657;50.140;7.076;2023-07-13T05:31:50;16.90;99.90
15113;DHT22;7657;50.140;7.076;2023-07-13T05:34:17;16.90;99.90
15113;DHT22;7657;50.140;7.076;2023-07-13T05:36:44;16.90;99.90
15113;DHT22;7657;50.140;7.076;2023-07-13T05:39:12;17.00;99.90
15113;DHT22;7657;50.140;7.076;2023-07-13T05:41:39;17.00;99.90
15113;DHT22;7657;50.140;7.076;2023-07-13T05:44:06;17.00;99.90
15113;DHT22;7657;50.140;7.076;2023-07-13T05:46:33;16.90;99.90
15113;DHT22;7657;50.140;7.076;2023-07-13T05:49:00;17.10;99.90
15113;DHT22;7657;50.140;7.076;2023-07-13T05:51:27;17.20;99.90
15113;DHT22;7657;50.140;7.076;2023-07-13T05:53:54;17.20;99.90
15113;DHT22;7657;50.140;7.076;2023-07-13T05:56:22;17.10;99.90
15113;DHT22;7657;50.140;7.076;2023-07-13T05:58:49;17.10;99.90
15113;DHT22;7657;50.140;7.076;2023-07-13T06:01:16;17.10;99.90
15113;DHT22;7657;50.140;7.076;2023-07-13T06:03:44;16.90;99.90
15113;DHT22;7657;50.140;7.076;2023-07-13T06:06:11;16.70;99.90
15113;DHT22;7657;50.140;7.076;2023-07-13T06:08:38;16.80;99.90
15113;DHT22;7657;50.140;7.076;2023-07-13T06:11:06;16.70;99.90
15113;DHT22;7657;50.140;7.076;2023-07-13T06:13:35;16.80;99.90
15113;DHT22;7657;50.140;7.076;2023-07-13T06:16:03;16.80;99.90
15113;DHT22;7657;50.140;7.076;2023-07-13T06:18:31;16.90;99.90
15113;DHT22;7657;50.140;7.076;2023-07-13T06:20:58;16.70;99.90
15113;DHT22;7657;50.140;7.076;2023-07-13T06:23:25;16.80;99.90
15113;DHT22;7657;50.140;7.076;2023-07-13T06:25:52;17.00;99.90
15113;DHT22;7657;50.140;7.076;2023-07-13T06:28:19;17.10;99.90
15113;DHT22;7657;50.140;7.076;2023-07-13T06:30:47;17.20;99.90
15113;DHT22;7657;50.140;7.076;2023-07-13T06:33:14;17.20;99.90
15113;DHT22;7657;50.140;7.076;2023-07-13T06:35:42;17.30;99.90
15113;DHT22;7657;50.140;7.076;2023-07-13T06:38:09;17.30;99.90
15113;DHT22;7657;50.140;7.076;2023-07-13T06:40:36;17.30;99.90
15113;DHT22;7657;50.140;7.076;2023-07-13T06:43:03;17.30;99.90
15113;DHT22;7657;50.140;7.076;2023-07-13T06:45:29;17.40;99.90
15113;DHT22;7657;50.140;7.076;2023-07-13T06:47:58;17.40;99.90
15113;DHT22;7657;50.140;7.076;2023-07-13T06:50:25;17.30;99.90
15113;DHT22;7657;50.140;7.076;2023-07-13T06:52:51;17.20;99.90
15113;DHT22;7657;50.140;7.076;2023-07-13T06:55:18;17.30;99.90
15113;DHT22;7657;50.140;7.076;2023-07-13T06:57:45;17.40;99.90
15113;DHT22;7657;50.140;7.076;2023-07-13T07:00:13;17.50;99.90
15113;DHT22;7657;50.140;7.076;2023-07-13T07:02:40;17.60;99.90
15113;DHT22;7657;50.140;7.076;2023-07-13T07:05:08;17.60;99.90
15113;DHT22;7657;50.140;7.076;2023-07-13T07:07:35;17.80;99.90
15113;DHT22;7657;50.140;7.076;2023-07-13T07:10:03;17.70;99.90
15113;DHT22;7657;50.140;7.076;2023-07-13T07:12:30;17.80;99.90
15113;DHT22;7657;50.140;7.076;2023-07-13T07:14:57;17.80;99.90
15113;DHT22;7657;50.140;7.076;2023-07-13T07:17:24;17.80;99.90
15113;DHT22;7657;50.140;7.076;2023-07-13T07:19:51;17.90;99.90
15113;DHT22;7657;50.140;7.076;2023-07-13T07:22:20;17.90;99.90
15113;DHT22;7657;50.140;7.076;2023-07-13T07:24:47;17.90;99.90
15113;DHT22;7657;50.140;7.076;2023-07-13T07:27:14;17.90;99.90
15113;DHT22;7657;50.140;7.076;2023-07-13T07:29:41;18.00;99.90
15113;DHT22;7657;50.140;7.076;2023-07-13T07:32:08;18.00;99.90
15113;DHT22;7657;50.140;7.076;2023-07-13T07:34:35;18.00;99.90
15113;DHT22;7657;50.140;7.076;2023-07-13T07:37:02;18.10;99.90
15113;DHT22;7657;50.140;7.076;2023-07-13T07:39:31;18.10;99.90
15113;DHT22;7657;50.140;7.076;2023-07-13T07:41:58;18.20;99.90
15113;DHT22;7657;50.140;7.076;2023-07-13T07:44:25;18.20;99.90
15113;DHT22;7657;50.140;7.076;2023-07-13T07:46:52;18.30;99.90
15113;DHT22;7657;50.140;7.076;2023-07-13T07:49:19;18.30;99.90
15113;DHT22;7657;50.140;7.076;2023-07-13T07:51:46;18.40;99.90
15113;DHT22;7657;50.140;7.076;2023-07-13T07:54:13;18.40;99.90
15113;DHT22;7657;50.140;7.076;2023-07-13T07:56:41;18.40;99.90
15113;DHT22;7657;50.140;7.076;2023-07-13T07:59:09;18.50;99.90
15113;DHT22;7657;50.140;7.076;2023-07-13T08:01:36;18.50;99.90
15113;DHT22;7657;50.140;7.076;2023-07-13T08:04:04;18.50;99.90
15113;DHT22;7657;50.140;7.076;2023-07-13T08:06:31;18.50;99.90
15113;DHT22;7657;50.140;7.076;2023-07-13T08:08:59;18.50;99.90
15113;DHT22;7657;50.140;7.076;2023-07-13T08:11:27;18.60;99.90
15113;DHT22;7657;50.140;7.076;2023-07-13T08:13:55;18.70;99.90
15113;DHT22;7657;50.140;7.076;2023-07-13T08:16:22;18.80;99.90
15113;DHT22;7657;50.140;7.076;2023-07-13T08:18:49;18.90;99.90
15113;DHT22;7657;50.140;7.076;2023-07-13T08:21:16;19.00;99.90
15113;DHT22;7657;50.140;7.076;2023-07-13T08:23:45;19.10;99.90
15113;DHT22;7657;50.140;7.076;2023-07-13T08:26:12;19.20;99.90
15113;DHT22;7657;50.140;7.076;2023-07-13T08:28:40;19.10;99.90
15113;DHT22;7657;50.140;7.076;2023-07-13T08:31:09;19.20;99.90
15113;DHT22;7657;50.140;7.076;2023-07-13T08:33:36;19.20;99.90
15113;DHT22;7657;50.140;7.076;2023-07-13T08:36:04;19.10;99.90
15113;DHT22;7657;50.140;7.076;2023-07-13T08:38:32;19.10;99.90
15113;DHT22;7657;50.140;7.076;2023-07-13T08:40:59;19.10;99.90
15113;DHT22;7657;50.140;7.076;2023-07-13T08:43:28;19.20;99.90
15113;DHT22;7657;50.140;7.076;2023-07-13T08:46:02;19.20;99.90
15113;DHT22;7657;50.140;7.076;2023-07-13T08:48:36;19.20;99.90
15113;DHT22;7657;50.140;7.076;2023-07-13T08:51:12;19.10;99.90
15113;DHT22;7657;50.140;7.076;2023-07-13T08:53:45;18.90;99.90
15113;DHT22;7657;50.140;7.076;2023-07-13T08:56:18;19.00;99.90
15113;DHT22;7657;50.140;7.076;2023-07-13T08:58:48;19.10;99.90
15113;DHT22;7657;50.140;7.076;2023-07-13T09:01:19;19.10;99.90
15113;DHT22;7657;50.140;7.076;2023-07-13T09:03:56;19.00;99.90
15113;DHT22;7657;50.140;7.076;2023-07-13T09:06:34;19.10;99.90
15113;DHT22;7657;50.140;7.076;2023-07-13T09:09:03;19.00;99.90
15113;DHT22;7657;50.140;7.076;2023-07-13T09:11:44;19.00;99.90
15113;DHT22;7657;50.140;7.076;2023-07-13T09:14:37;19.10;99.90
15113;DHT22;7657;50.140;7.076;2023-07-13T09:17:12;19.20;99.90
15113;DHT22;7657;50.140;7.076;2023-07-13T09:19:41;19.10;99.90
15113;DHT22;7657;50.140;7.076;2023-07-13T09:22:14;19.00;99.90
15113;DHT22;7657;50.140;7.076;2023-07-13T09:24:50;19.10;99.90
15113;DHT22;7657;50.140;7.076;2023-07-13T09:27:22;19.30;99.90
15113;DHT22;7657;50.140;7.076;2023-07-13T09:29:54;19.30;99.90
15113;DHT22;7657;50.140;7.076;2023-07-13T09:32:25;19.40;99.90
15113;DHT22;7657;50.140;7.076;2023-07-13T09:34:54;19.40;99.90
15113;DHT22;7657;50.140;7.076;2023-07-13T09:37:24;19.60;99.90
15113;DHT22;7657;50.140;7.076;2023-07-13T09:39:55;19.70;99.90
15113;DHT22;7657;50.140;7.076;2023-07-13T09:42:25;19.60;99.90
15113;DHT22;7657;50.140;7.076;2023-07-13T09:44:55;19.80;99.90
15113;DHT22;7657;50.140;7.076;2023-07-13T09:47:25;19.90;99.90
15113;DHT22;7657;50.140;7.076;2023-07-13T09:49:58;20.00;99.90
15113;DHT22;7657;50.140;7.076;2023-07-13T09:52:26;20.10;99.90
15113;DHT22;7657;50.140;7.076;2023-07-13T09:54:55;20.30;99.90
15113;DHT22;7657;50.140;7.076;2023-07-13T09:57:25;20.40;99.90
15113;DHT22;7657;50.140;7.076;2023-07-13T09:59:54;20.50;99.90
15113;DHT22;7657;50.140;7.076;2023-07-13T10:02:27;20.60;99.90
15113;DHT22;7657;50.140;7.076;2023-07-13T10:05:00;20.50;99.90
15113;DHT22;7657;50.140;7.076;2023-07-13T10:07:28;20.60;99.90
15113;DHT22;7657;50.140;7.076;2023-07-13T10:09:57;20.60;99.90
15113;DHT22;7657;50.140;7.076;2023-07-13T10:12:25;20.70;99.90
15113;DHT22;7657;50.140;7.076;2023-07-13T10:14:54;20.80;99.90
15113;DHT22;7657;50.140;7.076;2023-07-13T10:17:28;20.90;99.90
15113;DHT22;7657;50.140;7.076;2023-07-13T10:20:00;21.00;99.90
15113;DHT22;7657;50.140;7.076;2023-07-13T10:22:37;21.00;99.90
15113;DHT22;7657;50.140;7.076;2023-07-13T10:25:15;20.90;99.90
15113;DHT22;7657;50.140;7.076;2023-07-13T10:27:43;20.70;99.90
15113;DHT22;7657;50.140;7.076;2023-07-13T10:30:15;20.70;99.90
15113;DHT22;7657;50.140;7.076;2023-07-13T10:32:43;20.60;99.90
15113;DHT22;7657;50.140;7.076;2023-07-13T10:35:14;20.70;99.90
15113;DHT22;7657;50.140;7.076;2023-07-13T10:37:47;20.70;99.90
15113;DHT22;7657;50.140;7.076;2023-07-13T10:40:18;20.70;99.90
15113;DHT22;7657;50.140;7.076;2023-07-13T10:42:50;20.60;99.90
15113;DHT22;7657;50.140;7.076;2023-07-13T10:45:20;20.60;99.90
15113;DHT22;7657;50.140;7.076;2023-07-13T10:47:47;20.60;99.90
15113;DHT22;7657;50.140;7.076;2023-07-13T10:50:20;20.60;99.90
15113;DHT22;7657;50.140;7.076;2023-07-13T10:52:49;20.60;99.90
15113;DHT22;7657;50.140;7.076;2023-07-13T10:55:36;20.70;99.90
15113;DHT22;7657;50.140;7.076;2023-07-13T10:58:13;20.80;99.90
15113;DHT22;7657;50.140;7.076;2023-07-13T11:00:47;20.70;99.90
15113;DHT22;7657;50.140;7.076;2023-07-13T11:03:17;20.70;99.90
15113;DHT22;7657;50.140;7.076;2023-07-13T11:05:49;20.60;99.90
15113;DHT22;7657;50.140;7.076;2023-07-13T11:08:20;20.70;99.90
15113;DHT22;7657;50.140;7.076;2023-07-13T11:10:53;20.80;99.90
15113;DHT22;7657;50.140;7.076;2023-07-13T11:16:41;20.80;99.90
15113;DHT22;7657;50.140;7.076;2023-07-13T11:22:25;20.80;99.90
15113;DHT22;7657;50.140;7.076;2023-07-13T11:24:57;20.70;99.90
15113;DHT22;7657;50.140;7.076;2023-07-13T11:27:36;20.70;99.90
15113;DHT22;7657;50.140;7.076;2023-07-13T11:33:08;20.90;99.90
15113;DHT22;7657;50.140;7.076;2023-07-13T11:35:49;20.90;99.90
15113;DHT22;7657;50.140;7.076;2023-07-13T11:38:20;20.90;99.90
15113;DHT22;7657;50.140;7.076;2023-07-13T11:40:51;20.90;99.90
15113;DHT22;7657;50.140;7.076;2023-07-13T11:43:20;21.10;99.90
15113;DHT22;7657;50.140;7.076;2023-07-13T11:45:49;21.10;99.90
15113;DHT22;7657;50.140;7.076;2023-07-13T11:48:25;21.20;99.90
15113;DHT22;7657;50.140;7.076;2023-07-13T11:50:56;21.20;99.90
15113;DHT22;7657;50.140;7.076;2023-07-13T11:53:27;21.20;99.90
15113;DHT22;7657;50.140;7.076;2023-07-13T11:55:55;21.30;99.90
15113;DHT22;7657;50.140;7.076;2023-07-13T11:58:24;21.20;99.90
15113;DHT22;7657;50.140;7.076;2023-07-13T12:00:55;21.20;99.90
15113;DHT22;7657;50.140;7.076;2023-07-13T12:03:25;21.20;99.90
15113;DHT22;7657;50.140;7.076;2023-07-13T12:05:56;21.20;99.90
15113;DHT22;7657;50.140;7.076;2023-07-13T12:08:25;21.20;99.90
15113;DHT22;7657;50.140;7.076;2023-07-13T12:11:14;21.20;99.90
15113;DHT22;7657;50.140;7.076;2023-07-13T12:13:41;21.10;99.90
15113;DHT22;7657;50.140;7.076;2023-07-13T12:16:13;20.90;99.90
15113;DHT22;7657;50.140;7.076;2023-07-13T12:18:43;20.70;99.90
15113;DHT22;7657;50.140;7.076;2023-07-13T12:21:13;20.70;99.90
15113;DHT22;7657;50.140;7.076;2023-07-13T12:23:45;20.80;99.90
15113;DHT22;7657;50.140;7.076;2023-07-13T12:26:15;20.90;99.90
15113;DHT22;7657;50.140;7.076;2023-07-13T12:28:46;21.00;99.90
15113;DHT22;7657;50.140;7.076;2023-07-13T12:31:25;21.00;99.90
15113;DHT22;7657;50.140;7.076;2023-07-13T12:33:57;20.90;99.90
15113;DHT22;7657;50.140;7.076;2023-07-13T12:36:24;21.00;99.90
15113;DHT22;7657;50.140;7.076;2023-07-13T12:38:53;21.00;99.90
15113;DHT22;7657;50.140;7.076;2023-07-13T12:41:20;20.90;99.90
15113;DHT22;7657;50.140;7.076;2023-07-13T12:43:49;20.80;99.90
15113;DHT22;7657;50.140;7.076;2023-07-13T12:46:18;20.70;99.90
15113;DHT22;7657;50.140;7.076;2023-07-13T12:48:49;20.80;99.90
15113;DHT22;7657;50.140;7.076;2023-07-13T12:51:17;20.80;99.90
15113;DHT22;7657;50.140;7.076;2023-07-13T12:53:49;20.90;99.90
15113;DHT22;7657;50.140;7.076;2023-07-13T12:56:21;21.00;99.90
15113;DHT22;7657;50.140;7.076;2023-07-13T12:58:50;21.20;99.90
15113;DHT22;7657;50.140;7.076;2023-07-13T13:01:21;21.30;99.90
15113;DHT22;7657;50.140;7.076;2023-07-13T13:03:51;21.50;99.90
15113;DHT22;7657;50.140;7.076;2023-07-13T13:06:22;21.60;99.90
15113;DHT22;7657;50.140;7.076;2023-07-13T13:08:51;21.70;99.90
15113;DHT22;7657;50.140;7.076;2023-07-13T13:11:21;21.70;99.90
15113;DHT22;7657;50.140;7.076;2023-07-13T13:13:48;21.80;99.90
15113;DHT22;7657;50.140;7.076;2023-07-13T13:16:20;21.80;99.90
15113;DHT22;7657;50.140;7.076;2023-07-13T13:18:47;21.60;99.90
15113;DHT22;7657;50.140;7.076;2023-07-13T13:21:15;21.70;99.90
15113;DHT22;7657;50.140;7.076;2023-07-13T13:23:42;21.70;99.90
15113;DHT22;7657;50.140;7.076;2023-07-13T13:26:11;21.60;99.90
15113;DHT22;7657;50.140;7.076;2023-07-13T13:28:39;21.80;99.90
15113;DHT22;7657;50.140;7.076;2023-07-13T13:31:08;21.80;99.90
15113;DHT22;7657;50.140;7.076;2023-07-13T13:33:39;21.90;99.90
15113;DHT22;7657;50.140;7.076;2023-07-13T13:36:13;21.80;99.90
15113;DHT22;7657;50.140;7.076;2023-07-13T13:38:41;22.00;99.90
15113;DHT22;7657;50.140;7.076;2023-07-13T13:41:10;22.10;99.90
15113;DHT22;7657;50.140;7.076;2023-07-13T13:43:38;22.30;99.90
15113;DHT22;7657;50.140;7.076;2023-07-13T13:46:13;22.50;99.90
15113;DHT22;7657;50.140;7.076;2023-07-13T13:48:41;22.70;99.90
15113;DHT22;7657;50.140;7.076;2023-07-13T13:51:13;22.50;99.90
15113;DHT22;7657;50.140;7.076;2023-07-13T13:53:41;22.30;99.90
15113;DHT22;7657;50.140;7.076;2023-07-13T13:56:08;22.40;99.90
15113;DHT22;7657;50.140;7.076;2023-07-13T13:58:35;22.50;99.90
15113;DHT22;7657;50.140;7.076;2023-07-13T14:01:03;22.40;99.90
15113;DHT22;7657;50.140;7.076;2023-07-13T14:03:33;22.50;99.90
15113;DHT22;7657;50.140;7.076;2023-07-13T14:06:00;22.60;99.90
15113;DHT22;7657;50.140;7.076;2023-07-13T14:08:27;22.80;99.90
15113;DHT22;7657;50.140;7.076;2023-07-13T14:10:56;23.10;99.90
15113;DHT22;7657;50.140;7.076;2023-07-13T14:13:27;23.10;99.90
15113;DHT22;7657;50.140;7.076;2023-07-13T14:15:55;23.00;99.90
15113;DHT22;7657;50.140;7.076;2023-07-13T14:18:23;22.90;99.90
15113;DHT22;7657;50.140;7.076;2023-07-13T14:20:50;22.70;99.90
15113;DHT22;7657;50.140;7.076;2023-07-13T14:23:18;22.70;99.90
15113;DHT22;7657;50.140;7.076;2023-07-13T14:25:45;22.70;99.90
15113;DHT22;7657;50.140;7.076;2023-07-13T14:28:23;22.60;99.90
15113;DHT22;7657;50.140;7.076;2023-07-13T14:30:51;22.70;99.90
15113;DHT22;7657;50.140;7.076;2023-07-13T14:33:20;23.00;99.90
15113;DHT22;7657;50.140;7.076;2023-07-13T14:35:49;22.80;99.90
15113;DHT22;7657;50.140;7.076;2023-07-13T14:38:19;22.80;99.90
15113;DHT22;7657;50.140;7.076;2023-07-13T14:40:46;22.80;99.90
15113;DHT22;7657;50.140;7.076;2023-07-13T14:43:14;22.70;99.90
15113;DHT22;7657;50.140;7.076;2023-07-13T14:45:44;22.70;99.90
15113;DHT22;7657;50.140;7.076;2023-07-13T14:48:17;22.80;99.90
15113;DHT22;7657;50.140;7.076;2023-07-13T14:50:45;23.00;99.90
15113;DHT22;7657;50.140;7.076;2023-07-13T14:53:14;23.20;99.90
15113;DHT22;7657;50.140;7.076;2023-07-13T14:55:41;23.90;99.90
15113;DHT22;7657;50.140;7.076;2023-07-13T14:58:08;24.50;99.80
15113;DHT22;7657;50.140;7.076;2023-07-13T15:00:35;24.90;97.90
15113;DHT22;7657;50.140;7.076;2023-07-13T15:03:03;24.90;97.20
15113;DHT22;7657;50.140;7.076;2023-07-13T15:05:32;25.10;96.50
15113;DHT22;7657;50.140;7.076;2023-07-13T15:08:01;24.70;95.40
15113;DHT22;7657;50.140;7.076;2023-07-13T15:10:32;24.40;95.80
15113;DHT22;7657;50.140;7.076;2023-07-13T15:13:01;24.10;96.20
15113;DHT22;7657;50.140;7.076;2023-07-13T15:15:40;24.20;96.60
15113;DHT22;7657;50.140;7.076;2023-07-13T15:18:09;24.30;96.10
15113;DHT22;7657;50.140;7.076;2023-07-13T15:20:37;24.60;96.00
15113;DHT22;7657;50.140;7.076;2023-07-13T15:23:04;24.70;95.10
15113;DHT22;7657;50.140;7.076;2023-07-13T15:25:33;24.90;94.90
15113;DHT22;7657;50.140;7.076;2023-07-13T15:28:01;24.70;93.90
15113;DHT22;7657;50.140;7.076;2023-07-13T15:30:29;24.60;93.90
15113;DHT22;7657;50.140;7.076;2023-07-13T15:33:09;24.60;94.10
15113;DHT22;7657;50.140;7.076;2023-07-13T15:35:37;24.30;94.10
15113;DHT22;7657;50.140;7.076;2023-07-13T15:38:14;24.50;93.90
15113;DHT22;7657;50.140;7.076;2023-07-13T15:40:43;24.40;93.30
15113;DHT22;7657;50.140;7.076;2023-07-13T15:43:11;24.40;93.70
15113;DHT22;7657;50.140;7.076;2023-07-13T15:45:39;24.60;93.60
15113;DHT22;7657;50.140;7.076;2023-07-13T15:48:13;24.70;94.20
15113;DHT22;7657;50.140;7.076;2023-07-13T15:50:43;25.30;93.90
15113;DHT22;7657;50.140;7.076;2023-07-13T15:53:11;25.40;92.70
15113;DHT22;7657;50.140;7.076;2023-07-13T15:55:38;25.10;92.40
15113;DHT22;7657;50.140;7.076;2023-07-13T15:58:11;24.80;92.40
15113;DHT22;7657;50.140;7.076;2023-07-13T16:00:40;24.60;92.80
15113;DHT22;7657;50.140;7.076;2023-07-13T16:03:07;24.30;92.70
15113;DHT22;7657;50.140;7.076;2023-07-13T16:05:34;24.30;93.10